Weather observations for the past three days for
Pella, Pella Municipal Airport
Imperial (Metric)
Date Time (cdt) Wind (mph) Vis. (mi.) Weather Sky Cond. Temperature (ºF) Relative Humidity Wind Chill (°F) Heat Index (°F) Pressure Precipitation (in)
Air Dwpt 6 hour altimeter (in) sea level (mb) 1 hr 3 hr 6 hr
Max. Min.
04 06:55 Calm 10.00 Fair CLR 72.7 69.8 78.4 72.1 91% 29.92 0.0
04 06:35 Calm 10.00 Fair CLR 72.5 69.8 91% 29.91 0.0
04 06:15 S 5 10.00 Fair CLR 73 70 90% 29.91 0.0
04 05:55 S 5 10.00 Fair CLR 73.4 69.8 89% 29.9 0.0
04 05:35 S 5 10.00 Fair CLR 73.8 70 88% 29.9 0.0
04 05:15 S 5 10.00 Fair CLR 74.5 70 86% 29.9 0.0
04 04:55 S 5 10.00 Fair CLR 74.3 70 86% 29.89 0.0
04 04:35 S 5 10.00 Fair CLR 74.5 70.2 86% 29.88 0.0
04 04:15 S 5 7.00 Fog/Mist CLR 74.5 70.2 86% 29.88 0.0
04 03:55 S 5 10.00 Fair CLR 74.5 70.3 87% 29.87 0.0
04 03:35 S 5 10.00 Fair CLR 74.8 70.3 86% 29.87 0.0
04 03:15 S 6 10.00 Fair CLR 75.4 70.3 84% 76 29.87 0.0
04 02:55 S 6 10.00 Fair CLR 76.3 70.3 82% 77 29.87 0.0
04 02:35 S 6 10.00 Fair CLR 77.5 70.5 79% 79 29.88 0.0
04 02:15 S 6 10.00 Fair CLR 77.9 70.5 78% 80 29.88 0.0
04 01:55 SE 7 10.00 Fair CLR 77.7 70.7 79% 80 29.88 0.0
04 01:35 SE 7 10.00 Fair CLR 78.1 70.7 78% 80 29.89 0.0
04 01:15 SE 6 10.00 Fair CLR 77.4 70.9 81% 79 29.89 0.0
04 00:55 SE 6 10.00 Fair CLR 77.2 71.2 88.5 76.8 82% 79 29.89 0.0
04 00:35 SE 6 10.00 Fair CLR 76.8 71.4 83% 78 29.9 0.0
04 00:15 Calm 10.00 Fair CLR 77 71.6 83% 78 29.89 0.0
03 23:55 Calm 10.00 Fair CLR 77.7 71.6 82% 80 29.89 0.0
03 23:35 SE 5 10.00 Fair CLR 78.1 71.6 81% 80 29.89 0.0
03 23:15 SE 5 10.00 Fair CLR 78.8 71.6 79% 82 29.89 0.0
03 22:55 Calm 10.00 Fair CLR 79.2 72 79% 82 29.89 0.0
03 22:35 Calm 10.00 Fair CLR 79.9 72 77% 84 29.89 0.0
03 22:15 Calm 10.00 Fair CLR 81 72.1 75% 85 29.89 0.0
03 21:55 SE 6 10.00 Fair CLR 81.3 72.1 74% 86 29.89 0.0
03 21:35 Calm 10.00 Fair CLR 81.9 72.5 73% 87 29.88 0.0
03 21:15 S 6 10.00 Fair CLR 82.4 72.7 73% 88 29.88 0.0
03 20:55 S 6 10.00 Fair CLR 82.6 73 73% 88 29.87 0.0
03 20:35 S 6 10.00 Fair CLR 83.8 73 70% 90 29.87 0.0
03 20:15 Calm 10.00 Fair CLR 84.2 73.8 71% 91 29.86 0.0
03 19:55 Calm 10.00 Fair CLR 85.3 73.2 67% 92 29.86 0.0
03 19:35 Calm 10.00 Fair CLR 86 73.4 66% 93 29.85 0.0
03 19:15 Calm 10.00 Fair CLR 87.4 73.4 63% 95 29.85 0.0
03 18:55 Calm 10.00 Fair CLR 88.7 73.8 94.6 88.5 61% 97 29.85 0.0
03 18:35 Calm 10.00 Fair CLR 90.3 73.6 58% 99 29.85 0.0
03 18:15 S 6 10.00 Fair CLR 91.2 73.4 56% 100 29.85 0.0
03 17:55 Calm 10.00 Fair CLR 91.9 73.6 55% 101 29.85 0.0
03 17:35 S 6 10.00 Fair CLR 92.7 73.4 54% 102 29.85 0.0
03 17:15 S 9 10.00 Fair CLR 92.7 73.2 53% 102 29.86 0.0
03 16:55 S 9 10.00 Fair CLR 93.4 73.8 53% 103 29.86 0.0
03 16:35 Calm 10.00 Fair CLR 93.6 75 55% 105 29.87 0.0
03 16:15 Calm 10.00 Fair CLR 93.6 73.8 53% 104 29.88 0.0
03 15:55 Calm 10.00 Fair CLR 93.6 73.6 52% 103 29.88 0.0
03 15:35 Calm 10.00 Fair CLR 93.7 73.2 51% 103 29.89 0.0
03 15:15 SW 5 10.00 Fair CLR 94.1 72.1 49% 102 29.9 0.0
03 14:55 Calm 10.00 Fair CLR 94.6 73 50% 104 29.9 0.0
03 14:35 Calm 10.00 Fair CLR 93.6 72.9 51% 103 29.9 0.0
03 14:15 S 9 10.00 Fair CLR 93.6 73.6 52% 103 29.9 0.0
03 13:55 SW 7 10.00 Fair CLR 93.6 72.3 50% 102 29.9 0.0
03 13:35 SW 8 10.00 Fair CLR 93.4 72.9 51% 102 29.91 0.0
03 13:15 S 10 10.00 Fair CLR 92.8 73.4 53% 102 29.91 0.0
03 12:55 SW 9 10.00 Fair CLR 92.7 73 92.8 74.1 53% 102 29.92 0.0
03 12:35 S 8 10.00 Fair CLR 91.8 72.7 54% 100 29.91 0.0
03 12:15 S 9 10.00 Fair CLR 91.9 73.4 55% 101 29.92 0.0
03 11:55 SW 5 10.00 Fair CLR 90.3 71.2 54% 97 29.92 0.0
03 11:35 Calm 10.00 Fair CLR 89.8 72.3 57% 97 29.93 0.0
03 11:15 Calm 10.00 Fair CLR 89.4 72 56% 96 29.93 0.0
03 10:55 SW 5 10.00 Fair CLR 88.7 71.8 57% 95 29.93 0.0
03 10:35 S 3 10.00 Fair CLR 87.1 72.1 61% 94 29.93 0.0
03 10:15 Calm 10.00 Fair CLR 86.4 72 62% 93 29.93 0.0
03 09:55 W 3 10.00 Fair CLR 85.3 71.2 63% 91 29.93 0.0
03 09:35 Calm 10.00 Fair CLR 83.7 71.2 66% 89 29.93 0.0
03 09:15 SW 3 10.00 Fair CLR 82.6 71.1 68% 87 29.93 0.0
03 08:55 S 5 10.00 Fair CLR 81.3 71.1 71% 85 29.93 0.0
03 08:35 Calm 10.00 Fair CLR 79.9 70.7 74% 83 29.93 0.0
03 08:15 SW 5 10.00 Fair CLR 78.6 70.5 76% 81 29.93 0.0
03 07:55 S 3 10.00 Fair CLR 77 70.2 80% 79 29.93 0.0
03 07:35 S 6 10.00 Fair CLR 75.9 70 82% 77 29.92 0.0
03 07:15 S 5 10.00 Fair CLR 74.7 69.6 84% 29.91 0.0
03 06:55 S 6 10.00 Fair CLR 74.5 69.4 78.8 73.9 84% 29.91 0.0
03 06:35 S 6 10.00 Fair CLR 74.7 69.4 84% 29.9 0.0
03 06:15 S 6 4.00 Fair with Haze CLR 74.8 69.4 83% 29.9 0.0
03 05:55 S 5 10.00 Fair CLR 75.4 69.4 82% 76 29.89 0.0
03 05:35 S 3 10.00 Fair CLR 75 69.6 83% 75 29.89 0.0
03 05:15 S 5 10.00 Fair CLR 75.4 69.6 82% 76 29.89 0.0
03 04:55 S 5 10.00 Fair CLR 75.9 69.8 81% 77 29.89 0.0
03 04:35 S 6 10.00 Fair CLR 76.6 69.8 79% 78 29.89 0.0
03 04:15 S 6 10.00 Fair CLR 77 69.8 79% 79 29.89 0.0
03 03:55 S 6 10.00 Fair CLR 76.8 69.8 79% 78 29.89 0.0
03 03:35 S 7 10.00 Fair CLR 77.4 69.8 78% 79 29.89 0.0
03 03:15 S 7 10.00 Fair CLR 78.1 69.8 76% 80 29.89 0.0
03 02:55 S 8 10.00 Fair CLR 78.3 69.8 75% 81 29.89 0.0
03 02:35 S 8 10.00 Fair CLR 78.3 69.8 75% 81 29.89 0.0
03 02:15 S 8 10.00 Fair CLR 78.1 70 76% 80 29.89 0.0
03 01:55 S 7 10.00 Fair CLR 78.1 70 76% 80 29.89 0.0
03 01:35 S 6 10.00 Fair CLR 78.4 70.2 76% 81 29.89 0.0
03 01:15 S 7 10.00 Fair CLR 78.6 70.3 76% 81 29.9 0.0
03 00:55 S 7 10.00 Fair CLR 78.4 70.5 88.5 78.3 77% 81 29.9 0.0
03 00:35 S 6 10.00 Fair CLR 78.6 70.7 77% 81 29.9 0.0
03 00:15 S 6 10.00 Fair CLR 79.2 70.9 76% 82 29.9 0.0
02 23:55 S 7 10.00 Fair CLR 79.3 71.2 76% 83 29.9 0.0
02 23:35 S 5 10.00 Fair CLR 79.7 71.4 76% 83 29.9 0.0
02 23:15 S 7 10.00 Fair CLR 80.1 71.8 76% 84 29.9 0.0
02 22:55 S 7 10.00 Fair CLR 80.8 72.1 75% 85 29.89 0.0
02 22:35 SE 6 10.00 Fair CLR 80.2 72.5 77% 84 29.9 0.0
02 22:15 SE 3 10.00 Fair CLR 80.8 72.7 76% 85 29.9 0.0
02 21:55 SE 3 10.00 Fair CLR 80.8 73 77% 85 29.9 0.0
02 21:35 SE 3 10.00 Fair CLR 81 73.4 78% 86 29.89 0.0
02 21:15 Calm 10.00 Fair CLR 81.1 73.2 77% 86 29.89 0.0
02 20:55 Calm 10.00 Fair CLR 81.7 73.4 76% 87 29.89 0.0
02 20:35 S 5 10.00 Fair CLR 82.9 73.4 73% 89 29.88 0.0
02 20:15 Calm 10.00 Fair CLR 83.3 73.4 72% 90 29.88 0.0
02 19:55 SE 6 10.00 Fair CLR 83.8 73.4 71% 90 29.88 0.0
02 19:35 Calm 10.00 Fair CLR 85.5 73.6 68% 93 29.88 0.0
02 19:15 S 5 10.00 Fair CLR 87.3 73.9 65% 96 29.88 0.0
02 18:55 Calm 10.00 Fair CLR 88.7 74.5 94.5 88.7 63% 98 29.88 0.0
02 18:35 S 3 10.00 Fair CLR 90.3 74.3 59% 100 29.88 0.0
02 18:15 Calm 10.00 Fair CLR 91.2 74.8 59% 102 29.88 0.0
02 17:55 S 7 10.00 Fair CLR 92.1 74.3 56% 102 29.88 0.0
02 17:35 S 5 10.00 Fair CLR 92.8 74.3 55% 103 29.89 0.0
02 17:15 S 8 10.00 Mostly Cloudy BKN110 93.2 74.3 54% 104 29.88 0.0
02 16:55 S 3 10.00 Overcast OVC110 92.7 75 57% 104 29.89 0.0
02 16:35 S 8 10.00 Mostly Cloudy BKN110 92.7 73.2 53% 102 29.9 0.0
02 16:15 S 8 10.00 Partly Cloudy SCT100 94.5 73.9 52% 105 29.9 0.0
02 15:55 S 9 10.00 Fair CLR 94.1 73 51% 103 29.9 0.0
02 15:35 S 9 10.00 Fair CLR 93.9 73.6 52% 104 29.9 0.0
02 15:15 SW 9 10.00 Fair CLR 93.9 73.6 52% 104 29.91 0.0
02 14:55 S 10 10.00 Fair CLR 94.3 72.9 50% 103 29.92 0.0
02 14:35 SW 7 10.00 Fair CLR 93.6 71.8 49% 101 29.92 0.0
02 14:15 S 8 10.00 Fair CLR 93.6 72.7 51% 102 29.92 0.0
02 13:55 SW 9 G 18 10.00 Fair CLR 93 71.8 50% 101 29.92 0.0
02 13:30 S 9 10.00 Fair CLR 92.7 71.8 51% 100 29.93 0.0
02 13:15 S 8 10.00 Fair CLR 91.6 72.1 53% 99 29.94 0.0
02 12:55 SW 7 10.00 Fair CLR 90.9 71.4 91.2 71.8 53% 98 29.94 0.0
02 12:35 SW 8 10.00 Fair CLR 90.1 71.2 54% 97 29.94 0.0
02 12:15 SW 12 10.00 Fair CLR 90.1 72.1 56% 98 29.95 0.0
02 11:55 S 10 10.00 Fair CLR 89.2 71.1 55% 95 29.96 0.0
02 11:35 S 7 10.00 Fair CLR 88.9 70.2 54% 94 29.96 0.0
02 11:15 S 7 10.00 Fair CLR 88.7 70.5 55% 94 29.97 0.0
02 10:55 S 7 10.00 Fair CLR 87.3 70.9 58% 93 29.96 0.0
02 10:35 S 8 10.00 Fair CLR 86 70.7 60% 91 29.96 0.0
02 10:15 SE 6 10.00 Fair CLR 84.7 70.7 63% 90 29.96 0.0
02 09:55 SE 5 10.00 Fair CLR 83.7 70.7 65% 88 29.96 0.0
02 09:35 Calm 10.00 Fair CLR 82.2 70.9 69% 87 29.96 0.0
02 09:15 Calm 10.00 Fair CLR 80.6 70.3 71% 84 29.96 0.0
02 08:55 SE 5 10.00 Fair CLR 79.7 70 72% 83 29.96 0.0
02 08:35 SE 3 10.00 Partly Cloudy SCT110 77.9 68.9 74% 80 29.97 0.0
02 08:15 S 5 10.00 Mostly Cloudy BKN110 76.1 68.7 78% 77 29.97 0.0
02 07:55 S 5 10.00 Partly Cloudy SCT110 74.5 68.7 82% 29.97 0.0
02 07:35 Calm 10.00 Partly Cloudy SCT110 73.4 68.4 84% 29.97 0.0
02 07:15 Calm 10.00 Mostly Cloudy BKN110 72 68.2 88% 29.97 0.0
02 06:55 NW 3 10.00 Mostly Cloudy BKN110 73 67.3 77.9 72.1 82% 29.97 0.0
02 06:35 Calm 10.00 Partly Cloudy SCT110 72.5 67.5 84% 29.97 0.0
02 06:15 Calm 10.00 Mostly Cloudy BKN100 BKN120 75.2 67.3 77% 76 29.97 0.0
02 05:55 NW 6 10.00 Mostly Cloudy BKN100 BKN120 75.6 67.6 77% 77 29.97 0.0
02 05:35 S 7 10.00 Partly Cloudy SCT100 SCT120 75.6 67.6 77% 77 29.94 0.0
02 05:15 S 7 10.00 Partly Cloudy SCT100 75.7 67.6 76% 77 29.94 0.0
02 04:55 S 5 10.00 Fair CLR 74.8 67.5 78% 29.94 0.0
02 04:35 S 6 10.00 Fair CLR 74.7 67.3 78% 29.94 0.0
02 04:15 S 6 10.00 Fair CLR 75 67.3 77% 76 29.93 0.0
02 03:55 S 5 10.00 Fair CLR 75.7 67.1 75% 77 29.94 0.0
02 03:35 S 3 10.00 Partly Cloudy SCT095 SCT120 76.3 67.3 74% 78 29.94 0.0
02 03:15 S 5 10.00 Mostly Cloudy BKN095 BKN120 76.5 67.5 74% 78 29.94 0.0
02 02:55 S 5 10.00 Partly Cloudy SCT095 76.8 67.3 72% 79 29.94 0.0
02 02:35 S 6 10.00 Fair CLR 77.2 67.3 72% 79 29.93 0.0
02 02:15 S 7 10.00 Fair CLR 77.4 67.3 71% 79 29.92 0.0
02 01:55 S 6 10.00 Fair CLR 77.7 67.5 71% 80 29.91 0.0
02 01:35 S 8 10.00 Fair CLR 77.7 67.5 71% 80 29.92 0.0
02 01:15 S 9 10.00 Fair CLR 77.7 67.5 71% 80 29.93 0.0
02 00:55 S 7 10.00 Fair CLR 77.5 67.5 88.3 77.4 71% 79 29.93 0.0
02 00:35 S 8 10.00 Fair CLR 78.1 67.6 70% 80 29.93 0.0
02 00:15 S 8 10.00 Fair CLR 78.3 67.8 70% 80 29.93 0.0
01 23:55 S 8 10.00 Fair CLR 78.6 68.2 70% 81 29.93 0.0
01 23:35 S 7 10.00 Fair CLR 79 68.4 70% 81 29.94 0.0
01 23:15 S 7 10.00 Fair CLR 79 68.9 71% 81 29.93 0.0
01 22:55 S 7 10.00 Fair CLR 80.2 68.9 68% 83 29.94 0.0
01 22:35 S 7 10.00 Fair CLR 80.1 69.4 70% 83 29.93 0.0
01 22:15 SE 7 10.00 Fair CLR 79.5 70.2 73% 83 29.93 0.0
01 21:55 SE 6 10.00 Fair CLR 80.1 70.3 72% 83 29.93 0.0
01 21:35 SE 6 10.00 Fair CLR 79.9 71.2 75% 83 29.92 0.0
01 21:15 SE 6 10.00 Fair CLR 78.6 72 80% 81 29.92 0.0
01 20:55 SE 6 10.00 Fair CLR 79 72 79% 82 29.92 0.0
01 20:35 Calm 7.00 Fair CLR 80.6 72.5 76% 85 29.91 0.0
01 20:15 SE 5 10.00 Fair CLR 81 72.5 76% 86 29.9 0.0
01 19:55 Calm 10.00 Fair CLR 81.9 72.1 72% 87 29.9 0.0
01 19:35 Calm 10.00 Fair CLR 84.9 71.6 64% 91 29.9 0.0
01 19:15 S 6 10.00 Fair CLR 86.5 71.8 62% 93 29.9 0.0
01 18:55 S 7 10.00 Fair CLR 88.5 72.1 95.4 88.3 58% 96 29.9 0.0
01 18:35 S 7 10.00 Fair CLR 90 72.5 57% 98 29.91 0.0
01 18:15 S 6 10.00 Fair CLR 91 72.1 54% 99 29.91 0.0
01 17:55 S 8 10.00 Fair CLR 91.9 72.3 53% 100 29.91 0.0
01 17:35 S 7 10.00 Fair CLR 93 72.1 51% 101 29.91 0.0
01 17:15 S 9 10.00 Fair CLR 93.7 72.3 50% 102 29.91 0.0
01 16:55 S 6 10.00 Fair CLR 94.5 72 48% 103 29.91 0.0
01 16:35 SW 9 10.00 Fair CLR 94.8 70 45% 101 29.92 0.0
01 16:15 SW 8 10.00 Fair CLR 94.8 70 45% 101 29.92 0.0
01 15:55 SW 10 10.00 Fair CLR 94.6 69.6 44% 101 29.92 0.0
01 15:35 S 12 10.00 Fair CLR 95 72 47% 103 29.93 0.0
01 15:15 SW 8 10.00 Fair CLR 94.8 71.6 47% 103 29.93 0.0
01 14:55 SW 10 10.00 Fair CLR 94.5 70.3 46% 101 29.94 0.0
01 14:35 SW 9 7.00 Fair with Haze CLR 93.9 70 46% 100 29.95 0.0
01 14:15 SW 8 10.00 Fair CLR 93.7 70.9 47% 101 29.95 0.0
01 13:55 S 8 10.00 Fair CLR 93 71.1 49% 100 29.95 0.0
01 13:35 SW 7 5.00 Fair with Haze CLR 92.7 70.9 49% 99 29.96 0.0
01 13:15 SW 8 10.00 Fair CLR 92.1 71.4 51% 99 29.96 0.0
01 12:55 S 7 10.00 Fair CLR 91.6 70.5 92.1 73 50% 98 29.97 0.0
01 12:35 S 7 10.00 Fair CLR 91 70.5 51% 97 29.98 0.0
01 12:15 S 10 10.00 Fair CLR 90.1 70.7 53% 96 29.98 0.0
01 11:55 S 9 7.00 Fair with Haze CLR 89.8 70.9 54% 96 29.98 0.0
01 11:35 SW 8 10.00 Fair CLR 89.1 69.4 52% 94 29.98 0.0
01 11:15 SW 6 10.00 Fair CLR 87.6 71.6 59% 94 29.98 0.0
01 10:55 S 6 7.00 Fair CLR 86.7 71.8 61% 93 29.98 0.0
01 10:35 S 6 10.00 Fair CLR 85.3 71.4 63% 91 29.98 0.0
01 10:15 S 5 10.00 Fair CLR 84.2 71.4 66% 89 29.98 0.0
01 09:55 S 8 7.00 Fair CLR 82.8 71.1 68% 87 29.98 0.0
01 09:35 S 8 10.00 Fair CLR 81 72.1 75% 85 29.98 0.0
01 09:15 S 7 10.00 Fair CLR 79.3 71.2 76% 83 29.98 0.0
01 08:55 S 6 10.00 Fair CLR 78.6 72.5 82% 82 29.98 0.0
01 08:35 S 7 10.00 Fair CLR 79.2 73 82% 83 29.99 0.0
01 08:15 Calm 10.00 Fair CLR 76.8 72.9 88% 78 29.98 0.0
01 07:55 S 5 10.00 Fair CLR 75.6 72.7 91% 75 29.99 0.0
01 07:35 S 5 10.00 Fair CLR 74.7 72.9 94% 29.98 0.0
01 07:15 S 5 10.00 Fair CLR 73.4 72.5 97% 29.98 0.0
Date Time (cdt) Wind (mph) Vis. (mi.) Weather Sky Cond. Air Dwpt Max. Min. Relative Humidity Wind Chill (°F) Heat Index (°F) altimeter (in) sea level (mb) 1 hr 3 hr 6 hr
6 hour
Temperature (ºF) Pressure Precipitation (in)